sensor_id;sensor_type;location;lat;lon;timestamp;pressure;altitude;pressure_sealevel;temperature
7830;BMP180;3960;51.86894000;5.39848000;2023-05-10T00:00:34;100874.16;;;13.39
7830;BMP180;3960;51.86894000;5.39848000;2023-05-10T00:03:00;100858.47;;;13.27
7830;BMP180;3960;51.86894000;5.39848000;2023-05-10T00:05:25;100868.09;;;13.32
7830;BMP180;3960;51.86894000;5.39848000;2023-05-10T00:07:50;100878.88;;;13.35
7830;BMP180;3960;51.86894000;5.39848000;2023-05-10T00:10:16;100876.25;;;13.32
7830;BMP180;3960;51.86894000;5.39848000;2023-05-10T00:12:41;100877.03;;;13.32
7830;BMP180;3960;51.86894000;5.39848000;2023-05-10T00:15:07;100875.06;;;13.33
7830;BMP180;3960;51.86894000;5.39848000;2023-05-10T00:17:33;100862.72;;;13.28
7830;BMP180;3960;51.86894000;5.39848000;2023-05-10T00:19:58;100872.69;;;13.35
7830;BMP180;3960;51.86894000;5.39848000;2023-05-10T00:22:23;100868.44;;;13.34
7830;BMP180;3960;51.86894000;5.39848000;2023-05-10T00:24:48;100869.53;;;13.36
7830;BMP180;3960;51.86894000;5.39848000;2023-05-10T00:27:14;100866.06;;;13.36
7830;BMP180;3960;51.86894000;5.39848000;2023-05-10T00:29:39;100873.44;;;13.35
7830;BMP180;3960;51.86894000;5.39848000;2023-05-10T00:32:04;100866.47;;;13.34
7830;BMP180;3960;51.86894000;5.39848000;2023-05-10T00:34:30;100868.38;;;13.37
7830;BMP180;3960;51.86894000;5.39848000;2023-05-10T00:36:55;100864.88;;;13.37
7830;BMP180;3960;51.86894000;5.39848000;2023-05-10T00:39:21;100858.75;;;13.33
7830;BMP180;3960;51.86894000;5.39848000;2023-05-10T00:41:46;100871.84;;;13.38
7830;BMP180;3960;51.86894000;5.39848000;2023-05-10T00:44:11;100858.38;;;13.31
7830;BMP180;3960;51.86894000;5.39848000;2023-05-10T00:46:37;100864.88;;;13.37
7830;BMP180;3960;51.86894000;5.39848000;2023-05-10T00:49:02;100864.53;;;13.35
7830;BMP180;3960;51.86894000;5.39848000;2023-05-10T00:51:28;100863.75;;;13.34
7830;BMP180;3960;51.86894000;5.39848000;2023-05-10T00:53:53;100855.75;;;13.27
7830;BMP180;3960;51.86894000;5.39848000;2023-05-10T00:56:19;100868.00;;;13.35
7830;BMP180;3960;51.86894000;5.39848000;2023-05-10T00:58:48;100863.06;;;13.30
7830;BMP180;3960;51.86894000;5.39848000;2023-05-10T01:01:13;100865.72;;;13.34
7830;BMP180;3960;51.86894000;5.39848000;2023-05-10T01:03:39;100861.47;;;13.33
7830;BMP180;3960;51.86894000;5.39848000;2023-05-10T01:06:05;100852.00;;;13.21
7830;BMP180;3960;51.86894000;5.39848000;2023-05-10T01:08:30;100864.25;;;13.29
7830;BMP180;3960;51.86894000;5.39848000;2023-05-10T01:10:56;100867.41;;;13.28
7830;BMP180;3960;51.86894000;5.39848000;2023-05-10T01:13:33;100856.97;;;13.26
7830;BMP180;3960;51.86894000;5.39848000;2023-05-10T01:15:59;100862.78;;;13.25
7830;BMP180;3960;51.86894000;5.39848000;2023-05-10T01:18:26;100866.69;;;13.24
7830;BMP180;3960;51.86894000;5.39848000;2023-05-10T01:21:07;100864.34;;;13.26
7830;BMP180;3960;51.86894000;5.39848000;2023-05-10T01:34:35;100863.16;;;13.08
7830;BMP180;3960;51.86894000;5.39848000;2023-05-10T01:37:12;100860.88;;;13.06
7830;BMP180;3960;51.86894000;5.39848000;2023-05-10T01:39:45;100871.81;;;13.03
7830;BMP180;3960;51.86894000;5.39848000;2023-05-10T01:42:15;100868.78;;;13.01
7830;BMP180;3960;51.86894000;5.39848000;2023-05-10T01:49:55;100872.81;;;12.93
7830;BMP180;3960;51.86894000;5.39848000;2023-05-10T01:52:27;100876.34;;;12.90
7830;BMP180;3960;51.86894000;5.39848000;2023-05-10T01:54:58;100881.81;;;12.86
7830;BMP180;3960;51.86894000;5.39848000;2023-05-10T01:57:27;100876.06;;;12.84
7830;BMP180;3960;51.86894000;5.39848000;2023-05-10T01:59:56;100864.53;;;12.77
7830;BMP180;3960;51.86894000;5.39848000;2023-05-10T02:02:22;100884.69;;;12.79
7830;BMP180;3960;51.86894000;5.39848000;2023-05-10T02:04:50;100880.41;;;12.78
7830;BMP180;3960;51.86894000;5.39848000;2023-05-10T02:07:16;100880.59;;;12.71
7830;BMP180;3960;51.86894000;5.39848000;2023-05-10T02:09:44;100883.31;;;12.71
7830;BMP180;3960;51.86894000;5.39848000;2023-05-10T02:12:13;100890.31;;;12.69
7830;BMP180;3960;51.86894000;5.39848000;2023-05-10T02:14:40;100886.91;;;12.65
7830;BMP180;3960;51.86894000;5.39848000;2023-05-10T02:17:07;100883.44;;;12.64
7830;BMP180;3960;51.86894000;5.39848000;2023-05-10T02:19:34;100888.16;;;12.60
7830;BMP180;3960;51.86894000;5.39848000;2023-05-10T02:22:01;100886.59;;;12.59
7830;BMP180;3960;51.86894000;5.39848000;2023-05-10T02:24:28;100884.38;;;12.54
7830;BMP180;3960;51.86894000;5.39848000;2023-05-10T02:26:54;100886.66;;;12.56
7830;BMP180;3960;51.86894000;5.39848000;2023-05-10T02:29:24;100884.06;;;12.49
7830;BMP180;3960;51.86894000;5.39848000;2023-05-10T02:31:54;100908.00;;;12.57
7830;BMP180;3960;51.86894000;5.39848000;2023-05-10T02:34:25;100899.44;;;12.59
7830;BMP180;3960;51.86894000;5.39848000;2023-05-10T02:36:52;100902.91;;;12.59
7830;BMP180;3960;51.86894000;5.39848000;2023-05-10T02:39:19;100904.44;;;12.60
7830;BMP180;3960;51.86894000;5.39848000;2023-05-10T02:41:46;100899.78;;;12.61
7830;BMP180;3960;51.86894000;5.39848000;2023-05-10T02:44:13;100889.88;;;12.51
7830;BMP180;3960;51.86894000;5.39848000;2023-05-10T02:46:39;100903.19;;;12.65
7830;BMP180;3960;51.86894000;5.39848000;2023-05-10T02:49:05;100904.31;;;12.67
7830;BMP180;3960;51.86894000;5.39848000;2023-05-10T02:51:32;100899.31;;;12.66
7830;BMP180;3960;51.86894000;5.39848000;2023-05-10T02:54:03;100902.72;;;12.70
7830;BMP180;3960;51.86894000;5.39848000;2023-05-10T02:56:36;100899.59;;;12.71
7830;BMP180;3960;51.86894000;5.39848000;2023-05-10T02:59:04;100901.53;;;12.71
7830;BMP180;3960;51.86894000;5.39848000;2023-05-10T03:01:30;100910.81;;;12.73
7830;BMP180;3960;51.86894000;5.39848000;2023-05-10T03:03:55;100907.66;;;12.75
7830;BMP180;3960;51.86894000;5.39848000;2023-05-10T03:06:20;100907.66;;;12.75
7830;BMP180;3960;51.86894000;5.39848000;2023-05-10T03:08:45;100900.72;;;12.74
7830;BMP180;3960;51.86894000;5.39848000;2023-05-10T03:14:28;100900.22;;;12.79
7830;BMP180;3960;51.86894000;5.39848000;2023-05-10T03:17:08;100911.03;;;12.82
7830;BMP180;3960;51.86894000;5.39848000;2023-05-10T03:19:43;100900.72;;;12.74
7830;BMP180;3960;51.86894000;5.39848000;2023-05-10T03:22:10;100909.44;;;12.85
7830;BMP180;3960;51.86894000;5.39848000;2023-05-10T03:24:39;100902.94;;;12.79
7830;BMP180;3960;51.86894000;5.39848000;2023-05-10T03:27:05;100915.22;;;12.87
7830;BMP180;3960;51.86894000;5.39848000;2023-05-10T03:29:31;100911.72;;;12.86
7830;BMP180;3960;51.86894000;5.39848000;2023-05-10T03:32:00;100918.66;;;12.91
7830;BMP180;3960;51.86894000;5.39848000;2023-05-10T03:34:25;100905.50;;;12.89
7830;BMP180;3960;51.86894000;5.39848000;2023-05-10T03:36:50;100908.22;;;12.89
7830;BMP180;3960;51.86894000;5.39848000;2023-05-10T03:39:16;100923.22;;;12.97
7830;BMP180;3960;51.86894000;5.39848000;2023-05-10T03:41:41;100922.00;;;12.98
7830;BMP180;3960;51.86894000;5.39848000;2023-05-10T03:44:06;100915.88;;;12.94
7830;BMP180;3960;51.86894000;5.39848000;2023-05-10T03:46:32;100922.44;;;12.97
7830;BMP180;3960;51.86894000;5.39848000;2023-05-10T03:48:57;100921.19;;;13.01
7830;BMP180;3960;51.86894000;5.39848000;2023-05-10T03:51:22;100920.31;;;13.04
7830;BMP180;3960;51.86894000;5.39848000;2023-05-10T03:53:49;100922.66;;;13.06
7830;BMP180;3960;51.86894000;5.39848000;2023-05-10T03:56:14;100924.59;;;13.05
7830;BMP180;3960;51.86894000;5.39848000;2023-05-10T03:58:40;100926.13;;;13.06
7830;BMP180;3960;51.86894000;5.39848000;2023-05-10T04:01:06;100936.25;;;13.06
7830;BMP180;3960;51.86894000;5.39848000;2023-05-10T04:03:31;100922.44;;;12.97
7830;BMP180;3960;51.86894000;5.39848000;2023-05-10T04:06:00;100937.72;;;13.10
7830;BMP180;3960;51.86894000;5.39848000;2023-05-10T04:08:26;100939.66;;;13.10
7830;BMP180;3960;51.86894000;5.39848000;2023-05-10T04:10:52;100931.63;;;13.03
7830;BMP180;3960;51.86894000;5.39848000;2023-05-10T04:13:17;100928.00;;;13.09
7830;BMP180;3960;51.86894000;5.39848000;2023-05-10T04:15:42;100922.72;;;13.02
7830;BMP180;3960;51.86894000;5.39848000;2023-05-10T04:18:08;100941.94;;;13.11
7830;BMP180;3960;51.86894000;5.39848000;2023-05-10T04:20:33;100935.31;;;13.12
7830;BMP180;3960;51.86894000;5.39848000;2023-05-10T04:22:59;100939.56;;;13.13
7830;BMP180;3960;51.86894000;5.39848000;2023-05-10T04:25:24;100929.88;;;13.12
7830;BMP180;3960;51.86894000;5.39848000;2023-05-10T04:27:49;100942.22;;;13.16
7830;BMP180;3960;51.86894000;5.39848000;2023-05-10T04:30:15;100936.03;;;13.16
7830;BMP180;3960;51.86894000;5.39848000;2023-05-10T04:32:40;100936.03;;;13.16
7830;BMP180;3960;51.86894000;5.39848000;2023-05-10T04:35:05;100943.75;;;13.17
7830;BMP180;3960;51.86894000;5.39848000;2023-05-10T04:37:31;100941.88;;;13.14
7830;BMP180;3960;51.86894000;5.39848000;2023-05-10T04:39:56;100942.66;;;13.15
7830;BMP180;3960;51.86894000;5.39848000;2023-05-10T04:42:21;100945.69;;;13.17
7830;BMP180;3960;51.86894000;5.39848000;2023-05-10T04:44:47;100942.97;;;13.17
7830;BMP180;3960;51.86894000;5.39848000;2023-05-10T04:47:12;100939.81;;;13.22
7830;BMP180;3960;51.86894000;5.39848000;2023-05-10T04:49:38;100931.78;;;13.15
7830;BMP180;3960;51.86894000;5.39848000;2023-05-10T04:52:03;100947.38;;;13.30
7830;BMP180;3960;51.86894000;5.39848000;2023-05-10T04:54:28;100951.38;;;13.26
7830;BMP180;3960;51.86894000;5.39848000;2023-05-10T04:56:54;100951.72;;;13.28
7830;BMP180;3960;51.86894000;5.39848000;2023-05-10T04:59:19;100945.16;;;13.25
7830;BMP180;3960;51.86894000;5.39848000;2023-05-10T05:01:44;100959.09;;;13.27
7830;BMP180;3960;51.86894000;5.39848000;2023-05-10T05:04:09;100964.53;;;13.27
7830;BMP180;3960;51.86894000;5.39848000;2023-05-10T05:06:35;100952.53;;;13.25
7830;BMP180;3960;51.86894000;5.39848000;2023-05-10T05:09:00;100949.81;;;13.25
7830;BMP180;3960;51.86894000;5.39848000;2023-05-10T05:11:25;100958.69;;;13.29
7830;BMP180;3960;51.86894000;5.39848000;2023-05-10T05:13:51;100959.38;;;13.33
7830;BMP180;3960;51.86894000;5.39848000;2023-05-10T05:16:16;100959.03;;;13.31
7830;BMP180;3960;51.86894000;5.39848000;2023-05-10T05:18:41;100960.63;;;13.28
7830;BMP180;3960;51.86894000;5.39848000;2023-05-10T05:21:17;100963.28;;;13.32
7830;BMP180;3960;51.86894000;5.39848000;2023-05-10T05:23:42;100973.84;;;13.30
7830;BMP180;3960;51.86894000;5.39848000;2023-05-10T05:26:08;100957.59;;;13.26
7830;BMP180;3960;51.86894000;5.39848000;2023-05-10T05:28:33;100959.81;;;13.31
7830;BMP180;3960;51.86894000;5.39848000;2023-05-10T05:31:02;100968.41;;;13.30
7830;BMP180;3960;51.86894000;5.39848000;2023-05-10T05:33:27;100974.16;;;13.32
7830;BMP180;3960;51.86894000;5.39848000;2023-05-10T05:35:52;100968.22;;;13.37
7830;BMP180;3960;51.86894000;5.39848000;2023-05-10T05:38:18;100969.75;;;13.38
7830;BMP180;3960;51.86894000;5.39848000;2023-05-10T05:40:43;100963.13;;;13.39
7830;BMP180;3960;51.86894000;5.39848000;2023-05-10T05:43:08;100969.28;;;13.43
7830;BMP180;3960;51.86894000;5.39848000;2023-05-10T05:45:34;100973.53;;;13.44
7830;BMP180;3960;51.86894000;5.39848000;2023-05-10T05:47:59;100966.84;;;13.48
7830;BMP180;3960;51.86894000;5.39848000;2023-05-10T05:50:24;100981.53;;;13.51
7830;BMP180;3960;51.86894000;5.39848000;2023-05-10T05:52:50;100979.19;;;13.53
7830;BMP180;3960;51.86894000;5.39848000;2023-05-10T05:55:15;100972.34;;;13.45
7830;BMP180;3960;51.86894000;5.39848000;2023-05-10T05:57:40;100981.47;;;13.54
7830;BMP180;3960;51.86894000;5.39848000;2023-05-10T06:00:06;100974.16;;;13.51
7830;BMP180;3960;51.86894000;5.39848000;2023-05-10T06:02:31;100981.97;;;13.49
7830;BMP180;3960;51.86894000;5.39848000;2023-05-10T06:04:56;100992.03;;;13.52
7830;BMP180;3960;51.86894000;5.39848000;2023-05-10T06:07:22;100994.75;;;13.52
7830;BMP180;3960;51.86894000;5.39848000;2023-05-10T06:09:47;100985.13;;;13.48
7830;BMP180;3960;51.86894000;5.39848000;2023-05-10T06:12:12;100997.47;;;13.52
7830;BMP180;3960;51.86894000;5.39848000;2023-05-10T06:14:38;101000.94;;;13.53
7830;BMP180;3960;51.86894000;5.39848000;2023-05-10T06:17:03;101003.66;;;13.53
7830;BMP180;3960;51.86894000;5.39848000;2023-05-10T06:19:30;100997.13;;;13.50
7830;BMP180;3960;51.86894000;5.39848000;2023-05-10T06:21:55;100992.09;;;13.49
7830;BMP180;3960;51.86894000;5.39848000;2023-05-10T06:24:21;101002.84;;;13.56
7830;BMP180;3960;51.86894000;5.39848000;2023-05-10T06:26:46;100994.81;;;13.49
7830;BMP180;3960;51.86894000;5.39848000;2023-05-10T06:29:12;101008.69;;;13.54
7830;BMP180;3960;51.86894000;5.39848000;2023-05-10T06:31:37;101007.16;;;13.53
7830;BMP180;3960;51.86894000;5.39848000;2023-05-10T06:34:02;101018.38;;;13.55
7830;BMP180;3960;51.86894000;5.39848000;2023-05-10T06:36:27;101018.75;;;13.57
7830;BMP180;3960;51.86894000;5.39848000;2023-05-10T06:38:53;101028.75;;;13.60
7830;BMP180;3960;51.86894000;5.39848000;2023-05-10T06:41:18;101004.91;;;13.48
7830;BMP180;3960;51.86894000;5.39848000;2023-05-10T06:43:43;101026.03;;;13.60
7830;BMP180;3960;51.86894000;5.39848000;2023-05-10T06:46:09;101011.06;;;13.52
7830;BMP180;3960;51.86894000;5.39848000;2023-05-10T06:48:34;101027.94;;;13.63
7830;BMP180;3960;51.86894000;5.39848000;2023-05-10T06:50:59;101033.75;;;13.65
7830;BMP180;3960;51.86894000;5.39848000;2023-05-10T06:53:25;101029.63;;;13.57
7830;BMP180;3960;51.86894000;5.39848000;2023-05-10T06:55:50;101038.41;;;13.65
7830;BMP180;3960;51.86894000;5.39848000;2023-05-10T06:58:19;101041.78;;;13.72
7830;BMP180;3960;51.86894000;5.39848000;2023-05-10T07:00:47;101048.78;;;13.70
7830;BMP180;3960;51.86894000;5.39848000;2023-05-10T07:03:13;101038.31;;;13.68
7830;BMP180;3960;51.86894000;5.39848000;2023-05-10T07:05:38;101043.91;;;13.81
7830;BMP180;3960;51.86894000;5.39848000;2023-05-10T07:08:03;101039.94;;;13.85
7830;BMP180;3960;51.86894000;5.39848000;2023-05-10T07:10:29;101048.78;;;13.89
7830;BMP180;3960;51.86894000;5.39848000;2023-05-10T07:12:54;101044.53;;;13.88
7830;BMP180;3960;51.86894000;5.39848000;2023-05-10T07:15:20;101048.78;;;13.89
7830;BMP180;3960;51.86894000;5.39848000;2023-05-10T07:17:45;101055.28;;;13.95
7830;BMP180;3960;51.86894000;5.39848000;2023-05-10T07:20:11;101052.75;;;14.04
7830;BMP180;3960;51.86894000;5.39848000;2023-05-10T07:22:36;101059.31;;;14.06
7830;BMP180;3960;51.86894000;5.39848000;2023-05-10T07:25:02;101064.28;;;14.11
7830;BMP180;3960;51.86894000;5.39848000;2023-05-10T07:27:27;101064.72;;;14.10
7830;BMP180;3960;51.86894000;5.39848000;2023-05-10T07:29:52;101069.72;;;14.11
7830;BMP180;3960;51.86894000;5.39848000;2023-05-10T07:32:18;101077.88;;;14.11
7830;BMP180;3960;51.86894000;5.39848000;2023-05-10T07:34:43;101071.75;;;14.07
7830;BMP180;3960;51.86894000;5.39848000;2023-05-10T07:37:08;101070.94;;;14.07
7830;BMP180;3960;51.86894000;5.39848000;2023-05-10T07:39:33;101071.31;;;14.09
7830;BMP180;3960;51.86894000;5.39848000;2023-05-10T07:41:59;101065.81;;;14.12
7830;BMP180;3960;51.86894000;5.39848000;2023-05-10T07:44:24;101062.75;;;14.10
7830;BMP180;3960;51.86894000;5.39848000;2023-05-10T07:46:49;101078.94;;;14.17
7830;BMP180;3960;51.86894000;5.39848000;2023-05-10T07:49:14;101080.03;;;14.20
7830;BMP180;3960;51.86894000;5.39848000;2023-05-10T07:51:40;101082.25;;;14.25
7830;BMP180;3960;51.86894000;5.39848000;2023-05-10T07:54:06;101076.81;;;14.25
7830;BMP180;3960;51.86894000;5.39848000;2023-05-10T07:56:32;101081.78;;;14.30
7830;BMP180;3960;51.86894000;5.39848000;2023-05-10T07:59:02;101084.50;;;14.30
7830;BMP180;3960;51.86894000;5.39848000;2023-05-10T08:01:32;101088.75;;;14.31
7830;BMP180;3960;51.86894000;5.39848000;2023-05-10T08:03:58;101089.94;;;14.30
7830;BMP180;3960;51.86894000;5.39848000;2023-05-10T08:06:23;101097.25;;;14.33
7830;BMP180;3960;51.86894000;5.39848000;2023-05-10T08:08:48;101085.84;;;14.38
7830;BMP180;3960;51.86894000;5.39848000;2023-05-10T08:11:18;101092.53;;;14.53
7830;BMP180;3960;51.86894000;5.39848000;2023-05-10T08:13:44;101100.56;;;14.75
7830;BMP180;3960;51.86894000;5.39848000;2023-05-10T08:16:10;101100.81;;;14.97
7830;BMP180;3960;51.86894000;5.39848000;2023-05-10T08:18:36;101106.34;;;15.09
7830;BMP180;3960;51.86894000;5.39848000;2023-05-10T08:21:02;101108.78;;;15.20
7830;BMP180;3960;51.86894000;5.39848000;2023-05-10T08:23:27;101112.59;;;15.26
7830;BMP180;3960;51.86894000;5.39848000;2023-05-10T08:25:52;101113.59;;;15.32
7830;BMP180;3960;51.86894000;5.39848000;2023-05-10T08:28:17;101110.78;;;15.35
7830;BMP180;3960;51.86894000;5.39848000;2023-05-10T08:30:43;101120.25;;;15.59
7830;BMP180;3960;51.86894000;5.39848000;2023-05-10T08:33:08;101127.81;;;15.67
7830;BMP180;3960;51.86894000;5.39848000;2023-05-10T08:35:33;101124.09;;;15.61
7830;BMP180;3960;51.86894000;5.39848000;2023-05-10T08:38:00;101116.00;;;15.58
7830;BMP180;3960;51.86894000;5.39848000;2023-05-10T08:40:26;101119.91;;;15.57
7830;BMP180;3960;51.86894000;5.39848000;2023-05-10T08:42:56;101123.66;;;15.63
7830;BMP180;3960;51.86894000;5.39848000;2023-05-10T08:45:24;101133.47;;;15.60
7830;BMP180;3960;51.86894000;5.39848000;2023-05-10T08:47:51;101137.78;;;15.45
7830;BMP180;3960;51.86894000;5.39848000;2023-05-10T08:50:18;101140.34;;;15.36
7830;BMP180;3960;51.86894000;5.39848000;2023-05-10T08:52:47;101142.06;;;15.31
7830;BMP180;3960;51.86894000;5.39848000;2023-05-10T08:55:13;101149.31;;;15.21
7830;BMP180;3960;51.86894000;5.39848000;2023-05-10T08:57:39;101147.94;;;15.13
7830;BMP180;3960;51.86894000;5.39848000;2023-05-10T09:00:04;101141.03;;;15.09
7830;BMP180;3960;51.86894000;5.39848000;2023-05-10T09:02:30;101140.94;;;15.12
7830;BMP180;3960;51.86894000;5.39848000;2023-05-10T09:04:56;101149.72;;;15.20
7830;BMP180;3960;51.86894000;5.39848000;2023-05-10T09:07:21;101142.31;;;15.36
7830;BMP180;3960;51.86894000;5.39848000;2023-05-10T09:09:47;101150.38;;;15.55
7830;BMP180;3960;51.86894000;5.39848000;2023-05-10T09:12:13;101141.13;;;15.65
7830;BMP180;3960;51.86894000;5.39848000;2023-05-10T09:14:41;101147.31;;;15.82
7830;BMP180;3960;51.86894000;5.39848000;2023-05-10T09:17:06;101158.09;;;16.01
7830;BMP180;3960;51.86894000;5.39848000;2023-05-10T09:19:32;101152.31;;;16.40
7830;BMP180;3960;51.86894000;5.39848000;2023-05-10T09:21:57;101155.81;;;16.78
7830;BMP180;3960;51.86894000;5.39848000;2023-05-10T09:24:26;101153.81;;;17.15
7830;BMP180;3960;51.86894000;5.39848000;2023-05-10T09:26:52;101163.66;;;17.25
7830;BMP180;3960;51.86894000;5.39848000;2023-05-10T09:29:17;101164.91;;;16.99
7830;BMP180;3960;51.86894000;5.39848000;2023-05-10T09:31:44;101169.72;;;16.83
7830;BMP180;3960;51.86894000;5.39848000;2023-05-10T09:34:15;101176.72;;;16.72
7830;BMP180;3960;51.86894000;5.39848000;2023-05-10T09:36:54;101176.94;;;16.65
7830;BMP180;3960;51.86894000;5.39848000;2023-05-10T09:39:20;101183.59;;;16.64
7830;BMP180;3960;51.86894000;5.39848000;2023-05-10T09:41:46;101177.38;;;16.63
7830;BMP180;3960;51.86894000;5.39848000;2023-05-10T09:44:16;101167.53;;;16.66
7830;BMP180;3960;51.86894000;5.39848000;2023-05-10T09:46:42;101166.56;;;16.72
7830;BMP180;3960;51.86894000;5.39848000;2023-05-10T09:49:08;101181.88;;;16.94
7830;BMP180;3960;51.86894000;5.39848000;2023-05-10T09:51:34;101186.00;;;17.24
7830;BMP180;3960;51.86894000;5.39848000;2023-05-10T09:54:16;101191.97;;;17.56
7830;BMP180;3960;51.86894000;5.39848000;2023-05-10T09:56:42;101195.66;;;17.96
7830;BMP180;3960;51.86894000;5.39848000;2023-05-10T09:59:10;101202.63;;;18.31
7830;BMP180;3960;51.86894000;5.39848000;2023-05-10T10:01:36;101199.88;;;18.52
7830;BMP180;3960;51.86894000;5.39848000;2023-05-10T10:04:03;101195.41;;;18.76
7830;BMP180;3960;51.86894000;5.39848000;2023-05-10T10:06:29;101200.53;;;19.04
7830;BMP180;3960;51.86894000;5.39848000;2023-05-10T10:08:54;101198.56;;;19.62
7830;BMP180;3960;51.86894000;5.39848000;2023-05-10T10:11:21;101203.28;;;19.79
7830;BMP180;3960;51.86894000;5.39848000;2023-05-10T10:13:47;101201.63;;;20.08
7830;BMP180;3960;51.86894000;5.39848000;2023-05-10T10:16:12;101198.28;;;20.13
7830;BMP180;3960;51.86894000;5.39848000;2023-05-10T10:18:37;101205.28;;;20.23
7830;BMP180;3960;51.86894000;5.39848000;2023-05-10T10:21:05;101187.25;;;20.22
7830;BMP180;3960;51.86894000;5.39848000;2023-05-10T10:23:31;101208.34;;;20.34
7830;BMP180;3960;51.86894000;5.39848000;2023-05-10T10:25:57;101201.59;;;20.35
7830;BMP180;3960;51.86894000;5.39848000;2023-05-10T10:28:39;101207.56;;;20.34
7830;BMP180;3960;51.86894000;5.39848000;2023-05-10T10:34:01;101208.97;;;20.02
7830;BMP180;3960;51.86894000;5.39848000;2023-05-10T10:36:28;101202.38;;;19.73
7830;BMP180;3960;51.86894000;5.39848000;2023-05-10T10:38:55;101209.09;;;19.54
7830;BMP180;3960;51.86894000;5.39848000;2023-05-10T10:41:31;101207.22;;;19.33
7830;BMP180;3960;51.86894000;5.39848000;2023-05-10T10:44:22;101198.66;;;19.22
7830;BMP180;3960;51.86894000;5.39848000;2023-05-10T10:47:22;101203.66;;;19.15
7830;BMP180;3960;51.86894000;5.39848000;2023-05-10T10:52:32;101204.28;;;19.19
7830;BMP180;3960;51.86894000;5.39848000;2023-05-10T10:55:15;101198.97;;;19.24
7830;BMP180;3960;51.86894000;5.39848000;2023-05-10T10:57:51;101202.78;;;19.27
7830;BMP180;3960;51.86894000;5.39848000;2023-05-10T11:00:32;101202.03;;;19.26
7830;BMP180;3960;51.86894000;5.39848000;2023-05-10T11:03:08;101202.47;;;19.25
7830;BMP180;3960;51.86894000;5.39848000;2023-05-10T11:08:12;101203.81;;;19.11
7830;BMP180;3960;51.86894000;5.39848000;2023-05-10T11:10:38;101202.38;;;19.07
7830;BMP180;3960;51.86894000;5.39848000;2023-05-10T11:13:08;101209.22;;;19.02
7830;BMP180;3960;51.86894000;5.39848000;2023-05-10T11:15:38;101211.97;;;18.94
7830;BMP180;3960;51.86894000;5.39848000;2023-05-10T11:18:20;101198.47;;;18.78
7830;BMP180;3960;51.86894000;5.39848000;2023-05-10T11:21:00;101212.63;;;18.76
7830;BMP180;3960;51.86894000;5.39848000;2023-05-10T11:23:48;101220.19;;;18.63
7830;BMP180;3960;51.86894000;5.39848000;2023-05-10T11:26:13;101213.09;;;18.44
7830;BMP180;3960;51.86894000;5.39848000;2023-05-10T11:31:08;101222.53;;;18.22
7830;BMP180;3960;51.86894000;5.39848000;2023-05-10T11:33:43;101215.34;;;18.03
7830;BMP180;3960;51.86894000;5.39848000;2023-05-10T11:36:14;101228.25;;;17.81
7830;BMP180;3960;51.86894000;5.39848000;2023-05-10T11:38:39;101224.38;;;17.57
7830;BMP180;3960;51.86894000;5.39848000;2023-05-10T11:41:05;101222.44;;;17.46
7830;BMP180;3960;51.86894000;5.39848000;2023-05-10T11:43:30;101213.19;;;17.31
7830;BMP180;3960;51.86894000;5.39848000;2023-05-10T11:45:56;101230.69;;;17.33
7830;BMP180;3960;51.86894000;5.39848000;2023-05-10T11:48:21;101226.19;;;17.27
7830;BMP180;3960;51.86894000;5.39848000;2023-05-10T11:50:49;101226.28;;;17.23
7830;BMP180;3960;51.86894000;5.39848000;2023-05-10T11:53:14;101220.16;;;17.19
7830;BMP180;3960;51.86894000;5.39848000;2023-05-10T11:55:39;101230.00;;;17.04
7830;BMP180;3960;51.86894000;5.39848000;2023-05-10T11:58:05;101223.22;;;16.96
7830;BMP180;3960;51.86894000;5.39848000;2023-05-10T12:00:31;101230.69;;;16.96
7830;BMP180;3960;51.86894000;5.39848000;2023-05-10T12:02:56;101231.31;;;17.00
7830;BMP180;3960;51.86894000;5.39848000;2023-05-10T12:05:22;101225.84;;;17.12
7830;BMP180;3960;51.86894000;5.39848000;2023-05-10T12:07:47;101227.59;;;17.19
7830;BMP180;3960;51.86894000;5.39848000;2023-05-10T12:10:13;101233.09;;;17.44
7830;BMP180;3960;51.86894000;5.39848000;2023-05-10T12:12:45;101227.78;;;17.61
7830;BMP180;3960;51.86894000;5.39848000;2023-05-10T12:15:19;101236.50;;;17.81
7830;BMP180;3960;51.86894000;5.39848000;2023-05-10T12:17:45;101230.66;;;17.92
7830;BMP180;3960;51.86894000;5.39848000;2023-05-10T12:20:21;101238.88;;;17.92
7830;BMP180;3960;51.86894000;5.39848000;2023-05-10T12:22:54;101245.66;;;17.87
7830;BMP180;3960;51.86894000;5.39848000;2023-05-10T12:25:22;101243.78;;;17.97
7830;BMP180;3960;51.86894000;5.39848000;2023-05-10T12:27:51;101242.44;;;18.01
7830;BMP180;3960;51.86894000;5.39848000;2023-05-10T12:30:21;101235.88;;;17.99
7830;BMP180;3960;51.86894000;5.39848000;2023-05-10T12:32:47;101249.88;;;18.01
7830;BMP180;3960;51.86894000;5.39848000;2023-05-10T12:35:13;101253.53;;;17.98
7830;BMP180;3960;51.86894000;5.39848000;2023-05-10T12:37:38;101255.94;;;17.96
7830;BMP180;3960;51.86894000;5.39848000;2023-05-10T12:40:08;101234.91;;;17.93
7830;BMP180;3960;51.86894000;5.39848000;2023-05-10T12:42:35;101240.47;;;18.02
7830;BMP180;3960;51.86894000;5.39848000;2023-05-10T12:45:01;101246.59;;;18.06
7830;BMP180;3960;51.86894000;5.39848000;2023-05-10T12:47:27;101244.81;;;18.12
7830;BMP180;3960;51.86894000;5.39848000;2023-05-10T12:49:53;101255.44;;;18.10
7830;BMP180;3960;51.86894000;5.39848000;2023-05-10T12:52:18;101256.28;;;17.98
7830;BMP180;3960;51.86894000;5.39848000;2023-05-10T12:54:43;101257.72;;;17.90
7830;BMP180;3960;51.86894000;5.39848000;2023-05-10T12:57:08;101254.69;;;17.75
7830;BMP180;3960;51.86894000;5.39848000;2023-05-10T12:59:34;101256.78;;;17.71